Time;durP1;ratioP1;P1;durP2;ratioP2;P2;SDS_P1;SDS_P2;PMS_P1;PMS_P2;Temp;Humidity;BMP_temperature;BMP_pressure;BME280_temperature;BME280_humidity;BME280_pressure;Samples;Min_cycle;Max_cycle;Signal;HPM_P1;HPM_P2
2023/10/06 00:00:26;;;;;;;5.30;2.60;;;;;;;12.39;92.53;102433.16;4948964;28;20086;-79
2023/10/06 00:02:51;;;;;;;4.68;2.50;;;;;;;12.37;92.55;102432.31;4943414;29;20023;-79
2023/10/06 00:05:17;;;;;;;3.38;2.38;;;;;;;12.37;92.59;102432.31;4945916;29;20034;-79
2023/10/06 00:07:42;;;;;;;4.97;2.50;;;;;;;12.36;92.28;102428.84;4949527;29;20024;-79
2023/10/06 00:10:21;;;;;;;5.80;2.70;;;;;;;12.33;92.66;102428.88;4948208;28;20339;-79
2023/10/06 00:12:51;;;;;;;6.03;2.40;;;;;;;12.31;93.08;102435.84;4938740;29;20160;-79
2023/10/06 00:15:35;;;;;;;3.80;2.35;;;;;;;12.29;93.18;102433.25;4949652;29;20031;-79
2023/10/06 00:18:07;;;;;;;4.85;2.50;;;;;;;12.28;93.28;102426.28;4949412;28;20034;-79
2023/10/06 00:23:23;;;;;;;5.03;2.45;;;;;;;12.26;93.45;102432.38;4954449;29;20497;-79
2023/10/06 00:25:54;;;;;;;7.13;3.05;;;;;;;12.23;93.50;102420.22;4950787;28;20035;-79
2023/10/06 00:28:27;;;;;;;7.68;2.72;;;;;;;12.22;93.36;102426.34;4953102;29;20027;-79
2023/10/06 00:31:07;;;;;;;4.70;2.63;;;;;;;12.21;93.37;102437.63;4954766;28;20106;-79
2023/10/06 00:33:33;;;;;;;5.82;2.80;;;;;;;12.19;93.42;102430.72;4953440;29;20038;-80
2023/10/06 00:36:11;;;;;;;6.78;2.80;;;;;;;12.16;93.78;102428.97;4945558;28;20039;-80
2023/10/06 00:38:36;;;;;;;5.20;2.90;;;;;;;12.13;93.48;102426.38;4952416;28;20110;-79
2023/10/06 00:41:06;;;;;;;5.47;2.60;;;;;;;12.12;93.61;102424.66;4950631;29;20174;-79
2023/10/06 00:43:36;;;;;;;4.55;2.72;;;;;;;12.10;93.69;102431.63;4952673;29;20023;-79
2023/10/06 00:46:07;;;;;;;5.82;2.47;;;;;;;12.08;94.02;102425.56;4954612;28;20078;-79
2023/10/06 00:48:40;;;;;;;5.68;3.00;;;;;;;12.07;94.22;102432.50;4952094;28;20109;-79
2023/10/06 00:51:15;;;;;;;5.95;2.67;;;;;;;12.06;94.18;102422.09;4940931;29;20059;-79
2023/10/06 00:53:41;;;;;;;6.45;3.10;;;;;;;12.07;94.11;102421.22;4953457;28;20027;-79
2023/10/06 00:56:16;;;;;;;6.03;2.97;;;;;;;12.05;94.16;102422.97;4944630;28;20032;-79
2023/10/06 00:58:42;;;;;;;4.15;2.60;;;;;;;12.04;94.26;102421.22;4949719;29;20050;-79
2023/10/06 01:01:12;;;;;;;5.60;2.65;;;;;;;12.04;94.38;102418.63;4944149;28;20114;-79
2023/10/06 01:03:48;;;;;;;5.88;2.80;;;;;;;12.04;94.23;102416.00;4942321;28;20472;-79
2023/10/06 01:06:17;;;;;;;5.95;2.72;;;;;;;12.01;94.34;102411.69;4953723;28;20027;-79
2023/10/06 01:08:52;;;;;;;6.35;2.88;;;;;;;11.99;94.35;102411.69;4940739;28;20480;-79
2023/10/06 01:11:20;;;;;;;5.97;2.97;;;;;;;11.97;94.49;102407.34;4952901;29;20495;-79
2023/10/06 01:13:55;;;;;;;7.55;3.30;;;;;;;11.97;94.67;102410.78;4966396;28;20054;-80
2023/10/06 01:16:34;;;;;;;4.30;2.80;;;;;;;11.96;94.68;102408.22;4933861;29;20042;-80
2023/10/06 01:19:14;;;;;;;5.40;2.92;;;;;;;11.95;94.50;102402.13;4943189;28;20023;-79
2023/10/06 02:29:19;;;;;;;4.47;2.80;;;;;;;11.60;95.51;102369.31;4915750;29;20063;-79
2023/10/06 02:31:44;;;;;;;7.57;3.10;;;;;;;11.56;96.26;102367.59;4923232;29;20028;-79
2023/10/06 02:34:15;;;;;;;4.90;2.83;;;;;;;11.55;96.26;102368.47;4934166;29;20042;-79
2023/10/06 02:36:41;;;;;;;6.70;2.63;;;;;;;11.54;96.41;102371.94;4934294;29;20028;-79
2023/10/06 02:39:09;;;;;;;5.63;2.97;;;;;;;11.51;96.59;102364.13;4934259;29;20031;-79
2023/10/06 02:41:34;;;;;;;6.47;3.08;;;;;;;11.50;96.65;102363.28;4926859;29;20023;-79
2023/10/06 02:44:13;;;;;;;5.78;2.85;;;;;;;11.50;96.81;102365.00;4933479;29;20054;-79
2023/10/06 02:46:39;;;;;;;6.07;2.80;;;;;;;11.50;96.96;102367.63;4916390;29;20020;-79
2023/10/06 02:49:08;;;;;;;7.43;3.38;;;;;;;11.49;96.98;102371.09;4948332;29;20028;-79
2023/10/06 02:51:33;;;;;;;5.68;3.05;;;;;;;11.47;96.94;102363.28;4931081;29;20032;-79
2023/10/06 02:56:41;;;;;;;5.75;2.92;;;;;;;11.44;96.55;102346.81;4933956;29;20565;-79
2023/10/06 02:59:26;;;;;;;7.68;3.13;;;;;;;11.44;97.02;102352.03;4933359;29;20490;-79
2023/10/06 03:01:57;;;;;;;6.65;2.97;;;;;;;11.41;97.14;102354.66;4925524;29;20035;-79
2023/10/06 03:04:26;;;;;;;6.45;2.67;;;;;;;11.40;97.05;102351.16;4925681;29;20036;-79
2023/10/06 03:06:53;;;;;;;6.68;3.00;;;;;;;11.39;96.75;102350.31;4937023;29;20443;-79
2023/10/06 03:09:43;;;;;;;6.18;3.20;;;;;;;11.41;96.75;102354.66;4937125;29;20090;-79
2023/10/06 03:12:14;;;;;;;6.15;3.25;;;;;;;11.39;97.09;102354.63;4932101;29;20023;-79
2023/10/06 03:14:40;;;;;;;8.27;3.15;;;;;;;11.37;97.17;102357.25;4937183;29;20024;-79
2023/10/06 03:17:10;;;;;;;4.65;2.78;;;;;;;11.37;97.29;102357.25;4937027;29;20028;-79
2023/10/06 03:19:40;;;;;;;6.97;3.10;;;;;;;11.35;97.06;102356.41;4923949;29;20385;-79
2023/10/06 03:22:09;;;;;;;6.78;3.40;;;;;;;11.34;97.25;102352.06;4935246;29;20388;-80
2023/10/06 03:24:52;;;;;;;6.25;3.10;;;;;;;11.32;97.33;102352.94;4929813;29;20380;-79
2023/10/06 03:27:18;;;;;;;6.25;3.28;;;;;;;11.31;97.25;102352.06;4947860;29;20053;-79
2023/10/06 03:29:47;;;;;;;6.93;3.08;;;;;;;11.29;97.70;102347.75;4934411;29;20420;-79
2023/10/06 03:32:21;;;;;;;6.82;2.97;;;;;;;11.28;97.86;102349.47;4953982;28;20035;-79
2023/10/06 03:34:47;;;;;;;6.47;3.25;;;;;;;11.26;97.70;102348.63;4952801;29;20055;-80
2023/10/06 03:37:16;;;;;;;6.10;2.97;;;;;;;11.25;97.77;102344.28;4940958;29;20055;-80
2023/10/06 03:39:48;;;;;;;7.07;3.45;;;;;;;11.25;97.64;102341.69;4944392;28;20035;-80
2023/10/06 03:42:18;;;;;;;7.97;3.13;;;;;;;11.22;97.49;102342.53;4951193;28;20023;-80
2023/10/06 03:44:44;;;;;;;5.95;2.80;;;;;;;11.19;97.57;102337.34;4940426;28;20027;-79
2023/10/06 03:47:10;;;;;;;6.25;3.08;;;;;;;11.18;97.52;102340.84;4954300;28;20038;-80
2023/10/06 03:49:37;;;;;;;6.95;2.90;;;;;;;11.16;97.65;102331.28;4955280;28;20539;-80
2023/10/06 03:52:03;;;;;;;6.75;2.90;;;;;;;11.14;97.40;102328.72;4953287;29;20027;-79
2023/10/06 03:54:29;;;;;;;4.97;3.10;;;;;;;11.14;97.35;102327.81;4951220;28;20027;-79
2023/10/06 03:56:55;;;;;;;7.32;2.97;;;;;;;11.11;97.42;102328.72;4947448;29;20090;-79
2023/10/06 03:59:21;;;;;;;7.78;3.10;;;;;;;11.07;97.81;102322.66;4940861;29;20027;-79
2023/10/06 04:01:46;;;;;;;7.00;3.20;;;;;;;11.06;97.80;102323.53;4955553;29;20413;-79
2023/10/06 04:04:15;;;;;;;7.10;2.90;;;;;;;11.06;97.78;102320.94;4948060;28;20063;-79
2023/10/06 04:06:41;;;;;;;5.03;3.20;;;;;;;11.05;97.65;102321.78;4949618;28;20107;-79
2023/10/06 04:09:08;;;;;;;5.78;2.78;;;;;;;11.05;97.27;102319.19;4938271;29;20023;-79
2023/10/06 04:11:34;;;;;;;7.05;3.20;;;;;;;11.03;97.53;102310.50;4948818;28;20016;-80
2023/10/06 04:13:59;;;;;;;4.00;2.45;;;;;;;11.03;97.50;102314.84;4947008;29;20380;-80
2023/10/06 04:16:25;;;;;;;8.18;3.20;;;;;;;11.02;97.32;102308.78;4950444;29;20106;-80
2023/10/06 04:18:50;;;;;;;5.88;2.78;;;;;;;11.01;97.24;102317.47;4936161;29;20053;-79
2023/10/06 04:21:16;;;;;;;8.55;2.80;;;;;;;10.98;97.42;102320.06;4953792;29;20526;-79
2023/10/06 04:23:41;;;;;;;5.10;2.63;;;;;;;10.98;97.16;102325.28;4949795;28;20043;-79
2023/10/06 04:26:09;;;;;;;6.85;2.97;;;;;;;10.98;97.35;102333.09;4939589;29;20030;-79
2023/10/06 04:28:34;;;;;;;7.28;3.00;;;;;;;10.96;97.50;102332.22;4954205;28;20031;-79
2023/10/06 04:31:01;;;;;;;6.07;2.70;;;;;;;10.96;97.22;102328.78;4953301;29;20402;-80
2023/10/06 04:33:28;;;;;;;4.82;2.42;;;;;;;10.94;97.27;102323.56;4951262;28;20035;-79
2023/10/06 04:36:07;;;;;;;6.47;2.70;;;;;;;10.95;97.26;102327.88;4946554;28;20475;-80
2023/10/06 04:38:36;;;;;;;7.28;2.78;;;;;;;10.93;97.41;102322.69;4939604;29;20154;-79
2023/10/06 04:41:02;;;;;;;4.97;2.80;;;;;;;10.93;97.15;102321.84;4953487;28;20471;-79
2023/10/06 04:43:27;;;;;;;5.50;2.75;;;;;;;10.92;97.35;102323.56;4951771;28;20023;-79
2023/10/06 04:45:55;;;;;;;5.47;2.75;;;;;;;10.91;97.12;102315.78;4951823;29;20024;-79
2023/10/06 04:48:21;;;;;;;7.05;3.00;;;;;;;10.90;96.88;102322.69;4940017;29;20122;-79
2023/10/06 04:50:50;;;;;;;6.35;2.80;;;;;;;10.90;96.92;102319.25;4948871;29;20041;-79
2023/10/06 04:53:16;;;;;;;5.97;2.60;;;;;;;10.91;96.82;102313.19;4952120;28;20023;-79
2023/10/06 04:55:42;;;;;;;6.22;2.65;;;;;;;10.89;96.71;102312.31;4940240;28;20038;-79
2023/10/06 04:58:09;;;;;;;6.93;2.90;;;;;;;10.89;96.85;102312.31;4949897;29;20019;-79
2023/10/06 05:00:34;;;;;;;4.97;2.67;;;;;;;10.88;96.86;102308.81;4950446;28;20127;-79
2023/10/06 05:03:03;;;;;;;5.15;2.80;;;;;;;10.87;96.57;102299.28;4948900;28;20118;-79
2023/10/06 05:05:33;;;;;;;6.85;2.72;;;;;;;10.88;96.48;102300.16;4950614;29;20031;-79
2023/10/06 05:07:59;;;;;;;5.10;2.70;;;;;;;10.87;96.43;102306.25;4939758;29;20065;-79
2023/10/06 05:10:27;;;;;;;6.20;2.53;;;;;;;10.88;96.35;102305.38;4942405;29;20047;-79
2023/10/06 05:12:52;;;;;;;5.82;2.70;;;;;;;10.87;96.32;102303.63;4939371;29;20435;-79
2023/10/06 05:15:23;;;;;;;4.75;2.55;;;;;;;10.86;96.50;102304.50;4949833;29;20039;-79
2023/10/06 05:17:58;;;;;;;6.05;2.88;;;;;;;10.87;96.32;102308.84;4943515;29;20463;-79
2023/10/06 05:20:30;;;;;;;5.28;2.95;;;;;;;10.87;96.31;102306.25;4949487;29;20071;-79
2023/10/06 05:23:09;;;;;;;5.00;2.50;;;;;;;10.89;96.11;102307.09;4953802;28;20533;-79
2023/10/06 05:25:41;;;;;;;5.43;2.65;;;;;;;10.87;96.25;102308.84;4948204;28;20038;-79
2023/10/06 05:28:16;;;;;;;5.40;2.50;;;;;;;10.87;96.06;102304.47;4952101;29;20035;-79
2023/10/06 05:30:42;;;;;;;5.93;2.45;;;;;;;10.87;96.11;102304.47;4946575;29;20094;-79
2023/10/06 05:33:08;;;;;;;5.28;2.40;;;;;;;10.88;96.18;102305.38;4952902;28;20043;-79
2023/10/06 05:35:38;;;;;;;6.53;2.72;;;;;;;10.88;96.15;102302.75;4947901;28;20039;-79
2023/10/06 05:38:15;;;;;;;6.17;2.60;;;;;;;10.89;95.84;102313.16;4948696;29;20045;-79
2023/10/06 05:40:44;;;;;;;5.45;2.80;;;;;;;10.88;96.11;102313.19;4945754;28;20178;-79
2023/10/06 05:43:12;;;;;;;5.93;2.78;;;;;;;10.87;95.83;102304.47;4953810;28;20039;-79
2023/10/06 05:48:34;;;;;;;7.78;2.40;;;;;;;10.85;96.03;102305.38;4940949;28;20042;-79
2023/10/06 05:51:05;;;;;;;4.95;2.40;;;;;;;10.84;95.82;102306.25;4941054;28;20334;-79
2023/10/06 05:53:40;;;;;;;7.78;2.72;;;;;;;10.83;95.76;102305.38;4937998;29;20038;-79
2023/10/06 05:56:08;;;;;;;6.25;2.50;;;;;;;10.84;95.61;102308.84;4948626;29;20496;-79
2023/10/06 05:58:37;;;;;;;6.25;2.50;;;;;;;10.81;95.89;102304.53;4949719;29;20030;-79
2023/10/06 06:01:13;;;;;;;6.70;2.38;;;;;;;10.81;95.80;102303.63;4947480;28;20051;-79
2023/10/06 06:03:44;;;;;;;5.80;2.58;;;;;;;10.81;95.77;102295.84;4942557;29;20039;-79
2023/10/06 06:06:10;;;;;;;8.25;2.97;;;;;;;10.82;95.74;102294.97;4952572;29;20394;-79
2023/10/06 06:08:39;;;;;;;4.90;2.50;;;;;;;10.83;95.55;102300.19;4950212;28;20035;-79
2023/10/06 06:11:05;;;;;;;4.60;2.33;;;;;;;10.84;95.43;102299.31;4943263;29;20535;-79
2023/10/06 06:13:31;;;;;;;6.75;2.40;;;;;;;10.87;95.51;102298.44;4948219;29;20027;-79
2023/10/06 06:15:56;;;;;;;5.35;2.40;;;;;;;10.87;95.56;102296.66;4949231;29;20031;-79
2023/10/06 06:18:21;;;;;;;6.72;2.55;;;;;;;10.90;95.58;102298.41;4948142;29;20023;-79
2023/10/06 06:20:46;;;;;;;7.43;2.78;;;;;;;10.92;95.39;102296.69;4943139;29;20528;-79
2023/10/06 06:23:12;;;;;;;6.53;2.63;;;;;;;10.93;95.37;102295.81;4934950;29;20027;-79
2023/10/06 06:25:38;;;;;;;4.78;2.65;;;;;;;10.95;95.44;102301.84;4940430;29;20034;-79
2023/10/06 06:28:05;;;;;;;4.32;2.30;;;;;;;10.97;95.36;102305.31;4947619;29;20391;-80
2023/10/06 06:30:33;;;;;;;4.40;2.55;;;;;;;11.00;95.34;102302.72;4942325;29;20336;-80
2023/10/06 06:33:01;;;;;;;5.70;2.70;;;;;;;11.03;95.36;102300.09;4940785;28;20123;-78
2023/10/06 06:35:28;;;;;;;8.40;2.58;;;;;;;11.07;95.46;102307.03;4950364;28;20019;-79
2023/10/06 06:37:59;;;;;;;6.13;2.58;;;;;;;11.10;95.31;102310.50;4940849;29;20027;-79
2023/10/06 06:40:26;;;;;;;4.72;2.33;;;;;;;11.13;95.27;102313.06;4940354;28;20424;-79
2023/10/06 06:42:51;;;;;;;6.72;2.20;;;;;;;11.14;95.02;102314.81;4938780;28;20038;-79
2023/10/06 06:45:17;;;;;;;5.20;2.45;;;;;;;11.16;95.14;102310.44;4939261;29;20032;-79
2023/10/06 06:47:43;;;;;;;6.00;2.50;;;;;;;11.17;94.80;102307.84;4941039;29;20497;-79
2023/10/06 06:50:13;;;;;;;6.20;2.42;;;;;;;11.18;94.89;102313.91;4954393;29;20029;-79
2023/10/06 06:52:39;;;;;;;5.80;2.65;;;;;;;11.20;94.83;102318.25;4944240;28;20031;-79
2023/10/06 06:55:12;;;;;;;7.43;2.65;;;;;;;11.20;94.94;102314.78;4943046;29;20062;-79
2023/10/06 06:57:43;;;;;;;4.68;2.47;;;;;;;11.22;95.05;102323.47;4945885;29;20089;-79
2023/10/06 07:00:16;;;;;;;5.88;2.78;;;;;;;11.23;95.05;102323.44;4947690;28;20032;-79
2023/10/06 07:02:43;;;;;;;9.43;2.78;;;;;;;11.25;94.86;102313.03;4946125;29;20030;-79
2023/10/06 07:05:10;;;;;;;5.63;2.38;;;;;;;11.28;94.95;102315.59;4947099;29;20028;-79
2023/10/06 07:07:36;;;;;;;5.70;2.65;;;;;;;11.30;94.89;102307.78;4950406;29;20078;-79
2023/10/06 07:10:06;;;;;;;7.05;2.40;;;;;;;11.32;94.64;102314.72;4954864;29;20039;-78
2023/10/06 07:12:31;;;;;;;5.90;2.75;;;;;;;11.36;94.29;102313.84;4954707;28;20027;-79
2023/10/06 07:14:57;;;;;;;5.75;2.63;;;;;;;11.38;94.28;102308.59;4954773;29;20025;-79
2023/10/06 07:17:22;;;;;;;5.15;2.55;;;;;;;11.41;94.17;102305.97;4942157;29;20493;-79
2023/10/06 07:19:48;;;;;;;5.25;2.60;;;;;;;11.44;94.31;102305.97;4939203;29;20038;-79
2023/10/06 07:22:14;;;;;;;4.80;2.40;;;;;;;11.47;93.66;102310.28;4940858;28;20054;-79
2023/10/06 07:24:40;;;;;;;8.88;2.70;;;;;;;11.50;93.69;102312.88;4945237;29;20525;-79
2023/10/06 07:27:07;;;;;;;7.03;2.53;;;;;;;11.53;94.18;102312.88;4956257;29;20027;-79
2023/10/06 07:29:32;;;;;;;5.35;2.40;;;;;;;11.58;93.56;102313.72;4943916;29;20039;-79
2023/10/06 07:32:00;;;;;;;5.78;2.85;;;;;;;11.62;93.96;102319.78;4956116;29;20034;-79
2023/10/06 07:34:26;;;;;;;5.50;2.40;;;;;;;11.67;94.04;102315.41;4953818;28;20379;-79
2023/10/06 07:36:51;;;;;;;4.18;2.50;;;;;;;11.71;93.78;102326.66;4944986;29;20031;-79
2023/10/06 07:39:20;;;;;;;5.78;2.90;;;;;;;11.76;93.50;102322.28;4937070;29;20035;-79
2023/10/06 07:41:46;;;;;;;9.35;2.40;;;;;;;11.81;93.72;102320.50;4935534;29;20396;-79
2023/10/06 07:44:11;;;;;;;5.78;2.67;;;;;;;11.85;93.15;102317.00;4940721;29;20023;-79
2023/10/06 07:46:37;;;;;;;4.40;2.50;;;;;;;11.92;93.77;102318.69;4942186;29;20031;-79
2023/10/06 07:49:04;;;;;;;5.43;2.80;;;;;;;11.99;93.21;102327.38;4946872;28;20027;-79
2023/10/06 07:51:29;;;;;;;5.30;2.47;;;;;;;12.06;93.02;102330.78;4942018;29;20027;-81
2023/10/06 07:53:55;;;;;;;6.60;2.50;;;;;;;12.13;92.81;102337.69;4939574;29;20036;-80
2023/10/06 07:56:20;;;;;;;5.70;2.90;;;;;;;12.18;92.30;102345.50;4944314;29;20030;-80
2023/10/06 07:58:45;;;;;;;5.07;2.70;;;;;;;12.25;92.21;102348.03;4955681;29;20085;-80
2023/10/06 08:01:12;;;;;;;4.25;2.45;;;;;;;12.33;91.69;102357.53;4946924;29;20028;-81
2023/10/06 08:03:39;;;;;;;8.98;3.00;;;;;;;12.38;90.74;102347.91;4939347;29;20043;-80
2023/10/06 08:06:10;;;;;;;8.52;3.10;;;;;;;12.46;90.91;102353.94;4953640;29;20026;-80
2023/10/06 08:08:37;;;;;;;7.93;2.90;;;;;;;12.52;90.88;102356.47;4955216;28;20061;-80
2023/10/06 08:11:03;;;;;;;5.88;2.53;;;;;;;12.60;91.37;102344.22;4948866;28;20534;-80
2023/10/06 08:13:33;;;;;;;5.88;2.40;;;;;;;12.70;91.90;102349.34;4936074;29;20110;-80
2023/10/06 08:15:59;;;;;;;8.55;3.13;;;;;;;12.77;90.14;102340.56;4944713;29;20031;-80
2023/10/06 08:18:28;;;;;;;5.93;2.42;;;;;;;12.86;90.89;102343.06;4943228;29;20324;-80
2023/10/06 08:20:54;;;;;;;7.30;2.70;;;;;;;12.92;89.81;102336.06;4940226;28;20028;-80
2023/10/06 08:23:20;;;;;;;8.18;2.80;;;;;;;13.00;89.64;102342.03;4937409;29;20198;-80
2023/10/06 08:25:46;;;;;;;5.00;2.50;;;;;;;13.06;89.30;102329.78;4946256;28;20053;-80
2023/10/06 08:28:12;;;;;;;5.88;2.67;;;;;;;13.14;89.22;102336.66;4944216;29;20031;-80
2023/10/06 08:30:38;;;;;;;6.03;2.40;;;;;;;13.22;89.54;102340.06;4946781;28;20051;-79
2023/10/06 08:33:04;;;;;;;6.35;2.72;;;;;;;13.32;89.55;102335.56;4935897;29;20054;-80
2023/10/06 08:35:30;;;;;;;6.85;2.60;;;;;;;13.43;88.95;102338.94;4942090;29;20027;-80
2023/10/06 08:37:56;;;;;;;6.88;2.58;;;;;;;13.51;88.63;102334.44;4954908;29;20106;-80
2023/10/06 08:40:26;;;;;;;7.70;2.80;;;;;;;13.62;89.07;102336.06;4948080;29;20100;-80
2023/10/06 08:42:54;;;;;;;6.50;2.58;;;;;;;13.73;88.34;102338.53;4935050;29;20051;-80
2023/10/06 08:45:21;;;;;;;6.82;2.72;;;;;;;13.84;88.16;102330.47;4938140;29;20043;-80
2023/10/06 08:47:52;;;;;;;5.93;2.40;;;;;;;13.92;88.04;102321.63;4945837;29;20035;-80
2023/10/06 08:50:22;;;;;;;6.75;2.60;;;;;;;14.01;88.34;102318.00;4939079;28;20035;-80
2023/10/06 08:52:51;;;;;;;5.18;2.40;;;;;;;14.10;88.12;102319.59;4936439;29;20393;-80
2023/10/06 08:55:21;;;;;;;6.18;2.50;;;;;;;14.17;87.38;102328.25;4950579;29;20027;-80
2023/10/06 08:57:49;;;;;;;8.35;2.65;;;;;;;14.20;86.98;102338.63;4954165;28;20126;-80
2023/10/06 09:00:16;;;;;;;4.93;2.28;;;;;;;14.24;86.93;102335.09;4952970;29;20063;-80
2023/10/06 09:02:43;;;;;;;5.47;2.47;;;;;;;14.28;86.96;102344.63;4954387;28;20027;-80
2023/10/06 09:05:10;;;;;;;6.60;2.47;;;;;;;14.31;87.15;102351.53;4942323;28;20463;-80
2023/10/06 09:07:35;;;;;;;8.15;2.40;;;;;;;14.32;86.86;102341.06;4939333;29;20032;-80
2023/10/06 09:10:17;;;;;;;6.07;2.50;;;;;;;14.37;87.44;102335.75;4947048;29;20043;-80
2023/10/06 09:12:43;;;;;;;5.78;2.28;;;;;;;14.42;87.40;102337.38;4943147;28;20023;-80
2023/10/06 09:15:15;;;;;;;6.18;2.35;;;;;;;14.49;87.81;102339.91;4953914;29;20430;-80
2023/10/06 09:17:40;;;;;;;7.07;2.20;;;;;;;14.55;87.25;102339.75;4954193;28;20082;-80
2023/10/06 09:20:07;;;;;;;4.97;2.25;;;;;;;14.66;87.39;102337.84;4943248;28;20031;-80
2023/10/06 09:22:44;;;;;;;5.55;2.20;;;;;;;14.76;87.29;102343.78;4934441;29;20189;-80
2023/10/06 09:25:10;;;;;;;6.57;2.40;;;;;;;14.86;86.82;102333.97;4953912;28;20027;-80
2023/10/06 09:27:37;;;;;;;7.80;2.20;;;;;;;14.94;86.46;102328.59;4952958;28;20107;-80
2023/10/06 09:30:10;;;;;;;9.70;2.20;;;;;;;15.03;86.64;102328.41;4940602;28;20054;-81
2023/10/06 09:32:36;;;;;;;6.40;2.40;;;;;;;15.11;86.60;102328.25;4952024;29;20491;-80
2023/10/06 09:35:36;;;;;;;6.43;2.25;;;;;;;15.17;86.26;102309.78;4946068;28;20031;-80
2023/10/06 09:38:13;;;;;;;9.68;2.30;;;;;;;15.21;85.67;102316.66;4912328;29;20163;-81
2023/10/06 09:40:43;;;;;;;5.32;2.38;;;;;;;15.26;84.90;102317.41;4947928;28;20047;-80
2023/10/06 09:43:13;;;;;;;7.03;2.30;;;;;;;15.29;85.38;102306.88;4953468;28;20027;-80
2023/10/06 09:45:41;;;;;;;6.65;2.22;;;;;;;15.35;84.93;102310.28;4935918;29;20023;-80
2023/10/06 09:48:13;;;;;;;5.20;2.33;;;;;;;15.39;85.18;102306.66;4935980;29;20032;-80
2023/10/06 09:50:41;;;;;;;6.38;2.60;;;;;;;15.42;84.90;102301.34;4946971;29;20082;-80
2023/10/06 09:53:10;;;;;;;7.15;2.63;;;;;;;15.44;84.76;102303.06;4953704;28;20444;-80
2023/10/06 09:55:36;;;;;;;7.63;2.47;;;;;;;15.45;83.93;102306.53;4935245;29;20420;-81
2023/10/06 09:58:05;;;;;;;5.78;2.42;;;;;;;15.45;84.95;102307.41;4941859;29;20031;-81
2023/10/06 10:00:34;;;;;;;5.53;2.50;;;;;;;15.48;85.27;102309.09;4951140;29;20372;-81
2023/10/06 10:03:00;;;;;;;7.18;2.55;;;;;;;15.51;84.57;102305.53;4952503;28;20031;-80
2023/10/06 10:05:26;;;;;;;9.43;3.10;;;;;;;15.53;84.18;102309.84;4943126;28;20034;-81
2023/10/06 10:07:54;;;;;;;7.60;2.88;;;;;;;15.56;83.44;102308.91;4953626;28;20110;-82
2023/10/06 10:10:22;;;;;;;11.77;2.60;;;;;;;15.58;83.56;102300.09;4948386;28;20038;-80
2023/10/06 10:13:00;;;;;;;8.10;2.95;;;;;;;15.60;83.48;102300.91;4956149;28;20038;-80
2023/10/06 10:15:44;;;;;;;6.47;2.70;;;;;;;15.63;84.45;102290.38;4955440;28;20024;-80
2023/10/06 10:18:35;;;;;;;6.85;2.83;;;;;;;15.71;84.05;102286.72;4955032;29;20035;-80
2023/10/06 10:21:00;;;;;;;5.90;2.30;;;;;;;15.76;83.65;102290.94;4951345;28;20107;-80
2023/10/06 10:23:31;;;;;;;6.70;2.60;;;;;;;15.83;83.25;102296.00;4938332;29;20043;-81
2023/10/06 10:26:27;;;;;;;6.80;2.60;;;;;;;15.91;83.74;102286.25;4955120;28;20039;-81
2023/10/06 10:29:12;;;;;;;4.75;2.20;;;;;;;16.01;83.68;102292.13;4950159;29;20026;-82
2023/10/06 10:31:38;;;;;;;12.25;2.78;;;;;;;16.07;82.90;102290.19;4957207;28;20027;-80
2023/10/06 10:34:03;;;;;;;8.65;2.83;;;;;;;16.12;82.73;102292.69;4956829;28;20383;-81
2023/10/06 10:36:29;;;;;;;12.95;2.83;;;;;;;16.13;81.69;102286.53;4949461;28;20038;-81
2023/10/06 10:39:22;;;;;;;6.80;2.50;;;;;;;16.18;82.80;102287.31;4950974;29;20483;-81
2023/10/06 10:41:47;;;;;;;6.20;2.30;;;;;;;16.21;83.08;102289.84;4948997;29;20041;-81
2023/10/06 10:44:14;;;;;;;8.05;2.50;;;;;;;16.24;82.54;102291.53;4952846;28;20389;-80
2023/10/06 10:46:52;;;;;;;9.02;2.35;;;;;;;16.28;82.19;102287.03;4941599;29;20488;-80
2023/10/06 10:49:19;;;;;;;7.57;2.70;;;;;;;16.32;81.09;102291.31;4956147;29;20027;-81
2023/10/06 10:52:09;;;;;;;6.70;2.38;;;;;;;16.37;82.54;102276.31;4946075;28;20207;-80
2023/10/06 10:54:39;;;;;;;8.27;2.10;;;;;;;16.42;82.16;102269.13;4943934;28;20051;-80
2023/10/06 10:57:13;;;;;;;6.60;2.22;;;;;;;16.46;80.54;102275.19;4956948;28;20050;-80
2023/10/06 11:02:35;;;;;;;8.18;2.50;;;;;;;16.49;80.15;102281.22;4955523;28;20403;-81
2023/10/06 11:05:02;;;;;;;7.55;2.30;;;;;;;16.52;79.42;102272.38;4956064;28;20034;-81
2023/10/06 11:07:27;;;;;;;7.05;2.50;;;;;;;16.55;79.18;102280.19;4956613;28;20180;-82
2023/10/06 11:09:52;;;;;;;5.22;2.17;;;;;;;16.58;79.72;102293.22;4955197;29;20499;-82
2023/10/06 11:12:24;;;;;;;7.22;2.13;;;;;;;16.63;79.33;102282.59;4942409;28;20026;-82
2023/10/06 11:14:52;;;;;;;;;;;;;;;16.68;80.63;102272.81;4949702;28;20087;-81
2023/10/06 11:17:22;;;;;;;6.32;2.28;;;;;;;16.74;78.51;102279.66;4949945;29;19921;-81
2023/10/06 11:19:59;;;;;;;5.95;2.42;;;;;;;16.80;79.46;102287.38;4954276;28;20039;-80
2023/10/06 11:22:26;;;;;;;8.57;2.40;;;;;;;16.84;77.04;102286.34;4954768;28;20028;-80
2023/10/06 11:24:57;;;;;;;8.68;2.45;;;;;;;16.84;77.25;102281.09;4956006;29;20019;-80
2023/10/06 11:27:23;;;;;;;10.38;2.50;;;;;;;16.87;77.90;102285.44;4955550;29;20027;-82
2023/10/06 11:29:51;;;;;;;6.18;2.42;;;;;;;16.86;77.12;102278.44;4955759;28;20122;-82
2023/10/06 11:32:17;;;;;;;8.70;2.45;;;;;;;16.86;77.45;102279.28;4945470;29;20487;-81
2023/10/06 11:34:44;;;;;;;8.32;2.45;;;;;;;16.88;77.23;102277.50;4937052;29;20055;-81
2023/10/06 11:37:12;;;;;;;12.05;2.72;;;;;;;16.90;77.57;102287.97;4947423;29;20059;-81
2023/10/06 11:39:38;;;;;;;7.03;2.45;;;;;;;16.95;78.07;102278.19;4955641;28;20039;-81
2023/10/06 11:42:22;;;;;;;8.75;2.50;;;;;;;17.02;78.81;102271.88;4949436;28;20044;-81
2023/10/06 11:44:47;;;;;;;7.10;2.70;;;;;;;17.08;76.83;102268.19;4938102;29;20313;-81
2023/10/06 11:47:12;;;;;;;8.13;2.60;;;;;;;17.12;77.20;102260.16;4936838;29;20459;-81
2023/10/06 11:49:53;;;;;;;8.23;2.55;;;;;;;17.20;78.66;102262.53;4937828;29;20031;-82
2023/10/06 11:52:18;;;;;;;5.75;2.30;;;;;;;17.22;76.36;102255.47;4940717;29;20027;-81
2023/10/06 11:54:44;;;;;;;6.65;2.17;;;;;;;17.22;75.55;102265.13;4939308;29;20059;-81
2023/10/06 11:57:09;;;;;;;8.13;2.60;;;;;;;17.21;75.30;102252.91;4936502;29;20036;-81
2023/10/06 11:59:34;;;;;;;5.72;2.58;;;;;;;17.18;74.94;102258.25;4944798;29;20031;-81
2023/10/06 12:02:09;;;;;;;8.77;2.70;;;;;;;17.17;76.38;102244.22;4955252;29;20487;-81
2023/10/06 12:04:34;;;;;;;7.28;2.30;;;;;;;17.19;76.89;102249.44;4954444;28;20054;-81
2023/10/06 12:07:00;;;;;;;8.10;2.60;;;;;;;17.18;75.49;102242.47;4945031;29;20477;-81
2023/10/06 12:09:30;;;;;;;8.07;2.88;;;;;;;17.16;75.97;102255.66;4946633;29;20034;-81
2023/10/06 12:11:59;;;;;;;13.10;2.80;;;;;;;17.17;76.00;102257.38;4954683;28;20089;-81
2023/10/06 12:14:25;;;;;;;6.90;2.58;;;;;;;17.16;76.05;102245.16;4953910;29;20046;-81
2023/10/06 12:16:50;;;;;;;6.82;2.28;;;;;;;17.19;76.51;102241.56;4938366;29;20035;-80
2023/10/06 12:19:16;;;;;;;10.18;2.58;;;;;;;17.24;76.89;102242.28;4938768;29;20056;-80
2023/10/06 12:21:41;;;;;;;8.15;2.42;;;;;;;17.26;76.29;102243.06;4941667;29;20039;-81
2023/10/06 12:24:11;;;;;;;11.13;2.78;;;;;;;17.26;76.00;102241.31;4950255;28;20028;-84
2023/10/06 12:26:36;;;;;;;9.38;2.78;;;;;;;17.26;76.30;102238.69;4955202;28;20434;-82
2023/10/06 12:29:02;;;;;;;8.18;2.67;;;;;;;17.29;75.85;102235.09;4954549;28;20027;-82
2023/10/06 12:31:27;;;;;;;9.57;2.38;;;;;;;17.33;76.48;102223.56;4953663;29;20047;-82
2023/10/06 12:33:55;;;;;;;6.65;2.17;;;;;;;17.42;77.46;102218.00;4952529;28;20418;-82
2023/10/06 12:36:20;;;;;;;11.20;3.00;;;;;;;17.51;76.29;102221.25;4952635;29;20487;-81
2023/10/06 12:38:45;;;;;;;8.80;2.50;;;;;;;17.58;76.72;102226.25;4948371;28;20034;-81
2023/10/06 12:41:12;;;;;;;8.68;2.65;;;;;;;17.63;75.84;102210.31;4948131;29;20046;-81
2023/10/06 12:43:37;;;;;;;7.13;2.40;;;;;;;17.66;75.13;102207.56;4945573;28;20531;-80
2023/10/06 12:46:03;;;;;;;8.40;2.47;;;;;;;17.67;75.04;102208.44;4945730;29;20031;-81
2023/10/06 12:48:30;;;;;;;4.53;2.10;;;;;;;17.69;76.79;102199.59;4947978;29;20106;-81
2023/10/06 12:50:56;;;;;;;6.53;2.50;;;;;;;17.78;74.67;102200.16;4939124;28;20026;-82